createdAt,value
2022-10-26T00:01:14.608Z,17.67
2022-10-26T00:03:44.866Z,20.57
2022-10-26T00:06:17.890Z,20.68
2022-10-26T00:08:46.076Z,16.02
2022-10-26T00:11:14.200Z,18.00
2022-10-26T00:13:42.794Z,18.45
2022-10-26T00:16:13.159Z,19.02
2022-10-26T00:18:41.428Z,15.40
2022-10-26T00:21:12.400Z,15.43
2022-10-26T00:23:40.440Z,18.30
2022-10-26T00:26:09.196Z,18.02
2022-10-26T00:28:36.769Z,17.92
2022-10-26T00:31:07.987Z,21.30
2022-10-26T00:33:37.092Z,15.30
2022-10-26T00:36:10.233Z,21.07
2022-10-26T00:38:38.625Z,14.23
2022-10-26T00:41:06.367Z,20.08
2022-10-26T00:43:36.081Z,15.55
2022-10-26T00:46:06.934Z,18.77
2022-10-26T00:48:41.285Z,16.70
2022-10-26T00:51:33.754Z,15.88
2022-10-26T00:54:05.211Z,13.50
2022-10-26T00:56:34.789Z,15.65
2022-10-26T00:59:05.519Z,16.37
2022-10-26T01:01:36.153Z,20.43
2022-10-26T01:04:04.285Z,20.00
2022-10-26T01:06:36.484Z,17.10
2022-10-26T01:09:05.564Z,15.95
2022-10-26T01:11:33.438Z,15.43
2022-10-26T01:14:03.855Z,17.73
2022-10-26T01:16:38.340Z,19.85
2022-10-26T01:19:14.783Z,20.00
2022-10-26T01:21:54.776Z,21.00
2022-10-26T01:24:44.123Z,16.90
2022-10-26T01:27:31.951Z,20.17
2022-10-26T01:30:19.901Z,25.10
2022-10-26T01:33:24.674Z,19.07
2022-10-26T01:36:02.658Z,21.37
2022-10-26T01:38:37.155Z,19.27
2022-10-26T01:41:10.909Z,23.75
2022-10-26T01:43:42.225Z,24.10
2022-10-26T01:46:11.883Z,19.00
2022-10-26T01:48:41.857Z,19.62
2022-10-26T01:51:11.407Z,20.82
2022-10-26T01:53:46.784Z,22.93
2022-10-26T01:56:23.453Z,20.68
2022-10-26T01:59:00.920Z,24.35
2022-10-26T02:01:52.139Z,21.60
2022-10-26T02:04:43.273Z,17.42
2022-10-26T02:07:31.541Z,18.87
2022-10-26T02:10:24.897Z,17.90
2022-10-26T02:13:01.914Z,19.70
2022-10-26T02:15:48.541Z,22.42
2022-10-26T02:18:27.023Z,16.55
2022-10-26T02:20:57.452Z,17.20
2022-10-26T02:23:27.873Z,16.57
2022-10-26T02:25:59.137Z,21.70
2022-10-26T02:28:33.249Z,19.10
2022-10-26T02:31:03.140Z,21.63
2022-10-26T02:33:34.063Z,21.10
2022-10-26T02:36:05.374Z,18.02
2022-10-26T02:38:34.968Z,22.70
2022-10-26T02:41:04.226Z,22.27
2022-10-26T02:43:37.593Z,20.85
2022-10-26T02:46:08.931Z,20.17
2022-10-26T02:48:36.705Z,21.25
2022-10-26T02:51:10.911Z,19.85
2022-10-26T02:53:42.422Z,23.73
2022-10-26T02:56:28.738Z,19.12
2022-10-26T02:59:00.240Z,21.48
2022-10-26T03:01:29.080Z,23.18
2022-10-26T03:04:00.546Z,21.23
2022-10-26T03:06:28.349Z,24.87
2022-10-26T03:08:55.616Z,15.95
2022-10-26T03:11:23.586Z,22.48
2022-10-26T03:13:51.147Z,19.57
2022-10-26T03:16:19.227Z,22.55
2022-10-26T03:18:46.715Z,18.55
2022-10-26T03:21:14.321Z,22.85
2022-10-26T03:23:42.245Z,25.60
2022-10-26T03:26:09.775Z,18.73
2022-10-26T03:28:38.001Z,18.73
2022-10-26T03:31:09.117Z,18.73
2022-10-26T03:36:05.230Z,15.25
2022-10-26T03:38:32.932Z,17.30
2022-10-26T03:41:01.023Z,18.50
2022-10-26T03:43:29.122Z,18.32
2022-10-26T03:45:56.889Z,18.87
2022-10-26T03:48:24.763Z,19.23
2022-10-26T03:50:52.300Z,18.80
2022-10-26T03:53:21.126Z,19.07
2022-10-26T03:55:48.944Z,16.52
2022-10-26T03:58:17.872Z,20.48
2022-10-26T04:00:45.637Z,17.50
2022-10-26T04:03:13.145Z,18.77
2022-10-26T04:05:40.919Z,15.30
2022-10-26T04:08:09.209Z,15.25
2022-10-26T04:10:37.392Z,19.02
2022-10-26T04:13:05.825Z,20.40
2022-10-26T04:15:33.207Z,15.43
2022-10-26T04:18:02.490Z,19.15
2022-10-26T04:20:31.768Z,17.30
2022-10-26T04:23:01.481Z,21.40
2022-10-26T04:25:32.927Z,18.98
2022-10-26T04:28:01.209Z,20.92
2022-10-26T04:30:29.109Z,20.35
2022-10-26T04:32:56.862Z,15.18
2022-10-26T04:35:24.948Z,16.93
2022-10-26T04:37:54.430Z,20.27
2022-10-26T04:40:22.196Z,18.02
2022-10-26T04:42:59.038Z,18.48
2022-10-26T04:45:28.723Z,16.30
2022-10-26T04:48:00.529Z,26.05
2022-10-26T04:50:28.540Z,19.60
2022-10-26T04:52:56.282Z,17.45
2022-10-26T04:55:24.364Z,18.17
2022-10-26T04:57:55.957Z,20.90
2022-10-26T05:00:22.949Z,17.82
2022-10-26T05:02:51.156Z,24.40
2022-10-26T05:05:19.801Z,18.77
2022-10-26T05:07:51.976Z,21.25
2022-10-26T05:10:19.708Z,19.60
2022-10-26T05:12:53.940Z,20.77
2022-10-26T05:15:21.434Z,21.25
2022-10-26T05:17:57.779Z,20.68
2022-10-26T05:20:28.631Z,20.05
2022-10-26T05:22:56.980Z,20.70
2022-10-26T05:25:25.278Z,18.15
2022-10-26T05:27:53.284Z,20.30
2022-10-26T05:30:21.339Z,21.55
2022-10-26T05:32:54.767Z,17.20
2022-10-26T05:35:23.462Z,25.00
2022-10-26T05:37:50.901Z,21.60
2022-10-26T05:40:19.105Z,21.27
2022-10-26T05:42:47.610Z,20.27
2022-10-26T05:45:16.024Z,21.52
2022-10-26T05:47:44.897Z,19.25
2022-10-26T05:50:16.243Z,19.07
2022-10-26T05:52:47.683Z,21.20
2022-10-26T05:55:18.086Z,23.20
2022-10-26T05:57:47.673Z,24.18
2022-10-26T06:00:18.937Z,21.52
2022-10-26T06:02:50.603Z,21.37
2022-10-26T06:05:21.983Z,26.07
2022-10-26T06:07:51.184Z,20.75
2022-10-26T06:10:20.627Z,24.45
2022-10-26T06:12:49.411Z,28.55
2022-10-26T06:15:19.973Z,19.92
2022-10-26T06:17:54.071Z,21.80
2022-10-26T06:20:50.808Z,21.80
2022-10-26T06:23:24.887Z,20.90
2022-10-26T06:27:32.961Z,21.20
2022-10-26T06:29:39.958Z,19.15
2022-10-26T06:32:09.819Z,17.73
2022-10-26T06:34:40.927Z,18.05
2022-10-26T06:37:09.181Z,19.23
2022-10-26T06:39:41.002Z,16.32
2022-10-26T06:42:11.902Z,17.17
2022-10-26T06:44:41.107Z,20.17
2022-10-26T06:47:36.600Z,21.62
2022-10-26T06:50:32.175Z,21.73
2022-10-26T06:53:09.516Z,17.35
2022-10-26T06:55:44.316Z,24.15
2022-10-26T06:58:18.353Z,20.32
2022-10-26T07:00:48.528Z,23.50
2022-10-26T07:03:17.537Z,24.92
2022-10-26T07:05:46.373Z,20.70
2022-10-26T07:08:15.165Z,20.20
2022-10-26T07:10:43.658Z,17.77
2022-10-26T07:13:12.852Z,21.45
2022-10-26T07:15:41.156Z,27.15
2022-10-26T07:18:09.821Z,20.20
2022-10-26T07:20:39.513Z,21.17
2022-10-26T07:23:08.623Z,29.07
2022-10-26T07:25:40.441Z,22.93
2022-10-26T07:28:10.622Z,23.27
2022-10-26T07:30:39.308Z,24.65
2022-10-26T07:33:12.268Z,33.13
2022-10-26T07:35:41.546Z,23.92
2022-10-26T07:38:09.728Z,22.67
2022-10-26T07:40:38.207Z,30.37
2022-10-26T07:43:06.366Z,22.85
2022-10-26T07:45:34.558Z,20.85
2022-10-26T07:48:02.088Z,18.30
2022-10-26T07:50:30.104Z,23.57
2022-10-26T07:53:00.562Z,26.05
2022-10-26T07:55:28.345Z,25.52
2022-10-26T07:57:57.566Z,20.60
2022-10-26T08:00:26.237Z,24.32
2022-10-26T08:02:54.836Z,19.82
2022-10-26T08:05:22.312Z,22.73
2022-10-26T08:07:49.840Z,22.17
2022-10-26T08:10:18.599Z,20.77
2022-10-26T08:12:46.071Z,28.92
2022-10-26T08:15:14.175Z,26.85
2022-10-26T08:17:41.755Z,27.05
2022-10-26T08:20:10.060Z,24.25
2022-10-26T08:22:37.753Z,24.45
2022-10-26T08:25:06.873Z,23.83
2022-10-26T08:27:34.233Z,26.05
2022-10-26T08:30:04.724Z,32.93
2022-10-26T08:32:34.507Z,36.85
2022-10-26T08:35:02.471Z,34.40
2022-10-26T08:37:31.108Z,33.15
2022-10-26T08:40:02.226Z,29.30
2022-10-26T08:42:38.587Z,26.65
2022-10-26T08:45:09.966Z,22.85
2022-10-26T08:47:43.873Z,23.87
2022-10-26T08:50:26.845Z,20.48
2022-10-26T08:52:59.705Z,28.95
2022-10-26T08:55:31.153Z,26.85
2022-10-26T08:58:04.919Z,24.77
2022-10-26T09:00:32.736Z,29.65
2022-10-26T09:03:01.009Z,24.10
2022-10-26T09:05:34.784Z,27.05
2022-10-26T09:08:38.498Z,24.65
2022-10-26T09:11:20.953Z,25.08
2022-10-26T09:14:23.959Z,28.23
2022-10-26T09:16:55.650Z,25.20
2022-10-26T09:19:30.027Z,24.63
2022-10-26T09:22:17.976Z,26.20
2022-10-26T09:24:52.480Z,30.00
2022-10-26T09:27:32.134Z,26.37
2022-10-26T09:30:07.920Z,26.17
2022-10-26T09:32:40.249Z,25.50
2022-10-26T09:37:59.105Z,24.30
2022-10-26T09:40:34.652Z,21.33
2022-10-26T09:43:06.113Z,25.02
2022-10-26T09:45:40.314Z,29.70
2022-10-26T09:48:17.622Z,24.50
2022-10-26T09:50:48.796Z,24.85
2022-10-26T09:53:16.759Z,29.30
2022-10-26T09:55:47.791Z,22.27
2022-10-26T09:58:18.889Z,29.40
2022-10-26T10:00:47.213Z,32.55
2022-10-26T10:03:26.660Z,25.85
2022-10-26T10:05:54.970Z,25.68
2022-10-26T10:08:25.222Z,23.22
2022-10-26T10:10:58.960Z,21.37
2022-10-26T10:13:32.065Z,31.50
2022-10-26T10:16:09.012Z,24.60
2022-10-26T10:18:38.538Z,23.32
2022-10-26T10:21:07.668Z,27.93
2022-10-26T10:23:37.981Z,24.45
2022-10-26T10:26:13.092Z,21.65
2022-10-26T10:28:42.780Z,28.23
2022-10-26T10:31:22.684Z,24.25
2022-10-26T10:33:51.255Z,23.73
2022-10-26T10:36:21.286Z,25.35
2022-10-26T10:38:50.483Z,27.22
2022-10-26T10:41:35.411Z,30.52
2022-10-26T10:46:37.881Z,32.53
2022-10-26T10:49:17.912Z,28.32
2022-10-26T10:51:46.769Z,32.10
2022-10-26T10:54:26.849Z,28.12
2022-10-26T10:56:57.893Z,38.20
2022-10-26T10:59:36.078Z,33.75
2022-10-26T11:02:33.546Z,31.30
2022-10-26T11:05:36.115Z,23.67
2022-10-26T11:11:21.620Z,34.00
2022-10-26T11:13:55.728Z,25.50
2022-10-26T11:16:32.541Z,24.10
2022-10-26T11:19:09.781Z,26.40
2022-10-26T11:21:40.383Z,26.82
2022-10-26T11:24:18.507Z,28.98
2022-10-26T11:26:56.853Z,23.90
2022-10-26T11:29:39.359Z,30.75
2022-10-26T11:32:23.792Z,23.52
2022-10-26T11:34:58.031Z,32.10
2022-10-26T11:40:15.519Z,26.15
2022-10-26T11:42:47.255Z,22.93
2022-10-26T11:45:30.653Z,26.20
2022-10-26T11:48:18.004Z,19.70
2022-10-26T11:50:50.028Z,24.45
2022-10-26T11:53:20.436Z,27.05
2022-10-26T11:55:55.728Z,21.87
2022-10-26T11:58:26.335Z,22.00
2022-10-26T12:00:57.839Z,23.35
2022-10-26T12:03:31.806Z,20.12
2022-10-26T12:05:59.580Z,21.65
2022-10-26T12:08:48.307Z,23.52
2022-10-26T12:11:34.985Z,19.37
2022-10-26T12:14:12.109Z,21.40
2022-10-26T12:16:54.103Z,24.07
2022-10-26T12:19:35.119Z,27.27
2022-10-26T12:22:03.836Z,24.80
2022-10-26T12:24:38.061Z,24.43
2022-10-26T12:27:11.123Z,25.60
2022-10-26T12:29:49.741Z,31.45
2022-10-26T12:32:33.141Z,26.42
2022-10-26T12:35:03.022Z,25.60
2022-10-26T12:37:37.743Z,27.30
2022-10-26T12:40:25.417Z,29.27
2022-10-26T12:42:53.308Z,25.23
2022-10-26T12:48:38.910Z,32.90
2022-10-26T12:50:54.626Z,35.30
2022-10-26T12:53:22.851Z,38.92
2022-10-26T12:56:03.098Z,28.70
2022-10-26T12:58:49.151Z,35.48
2022-10-26T13:01:35.698Z,28.95
2022-10-26T13:04:13.256Z,42.70
2022-10-26T13:07:02.789Z,29.67
2022-10-26T13:09:34.209Z,26.35
2022-10-26T13:12:03.876Z,31.60
2022-10-26T13:14:42.623Z,26.70
2022-10-26T13:17:13.887Z,24.90
2022-10-26T13:19:47.427Z,25.68
2022-10-26T13:22:18.541Z,24.93
2022-10-26T13:24:55.451Z,28.20
2022-10-26T13:27:25.862Z,21.80
2022-10-26T13:30:12.244Z,26.80
2022-10-26T13:32:42.713Z,24.40
2022-10-26T13:35:14.821Z,28.50
2022-10-26T13:37:47.242Z,22.62
2022-10-26T13:40:21.411Z,22.67
2022-10-26T13:42:52.896Z,26.27
2022-10-26T13:45:32.337Z,24.72
2022-10-26T13:48:03.993Z,22.48
2022-10-26T13:50:36.082Z,27.10
2022-10-26T13:53:19.718Z,22.45
2022-10-26T13:55:54.101Z,27.95
2022-10-26T13:58:42.121Z,27.73
2022-10-26T14:01:16.358Z,22.20
2022-10-26T14:03:44.355Z,22.20
2022-10-26T14:06:21.807Z,20.08
2022-10-26T14:08:50.900Z,30.00
2022-10-26T14:11:24.988Z,27.93
2022-10-26T14:13:52.852Z,21.25
2022-10-26T14:16:22.175Z,30.88
2022-10-26T14:18:49.742Z,22.58
2022-10-26T14:21:20.235Z,25.88
2022-10-26T14:23:58.099Z,29.35
2022-10-26T14:26:29.173Z,24.90
2022-10-26T14:29:01.553Z,23.50
2022-10-26T14:31:31.435Z,26.62
2022-10-26T14:34:00.621Z,27.52
2022-10-26T14:36:41.443Z,23.50
2022-10-26T14:39:18.717Z,32.80
2022-10-26T14:41:47.057Z,31.55
2022-10-26T14:44:17.622Z,25.10
2022-10-26T14:46:46.785Z,28.25
2022-10-26T14:49:23.870Z,21.42
2022-10-26T14:52:06.091Z,25.80
2022-10-26T14:54:34.882Z,33.90
2022-10-26T14:57:04.258Z,22.60
2022-10-26T14:59:32.550Z,24.80
2022-10-26T15:02:13.465Z,22.70
2022-10-26T15:04:44.513Z,21.87
2022-10-26T15:07:19.295Z,25.82
2022-10-26T15:09:51.473Z,21.73
2022-10-26T15:12:34.778Z,26.73
2022-10-26T15:15:18.781Z,24.70
2022-10-26T15:18:00.299Z,26.40
2022-10-26T15:20:29.857Z,29.55
2022-10-26T15:23:01.115Z,24.63
2022-10-26T15:25:31.905Z,29.45
2022-10-26T15:28:32.988Z,29.55
2022-10-26T15:31:07.564Z,32.88
2022-10-26T15:33:45.317Z,29.50
2022-10-26T15:36:16.517Z,26.02
2022-10-26T15:38:45.007Z,27.40
2022-10-26T15:41:33.824Z,28.10
2022-10-26T15:44:06.489Z,23.18
2022-10-26T15:46:37.328Z,29.57
2022-10-26T15:49:07.498Z,31.00
2022-10-26T15:51:35.590Z,27.00
2022-10-26T15:54:04.875Z,29.10
2022-10-26T15:56:32.745Z,29.25
2022-10-26T15:59:00.125Z,26.17
2022-10-26T16:01:29.514Z,25.43
2022-10-26T16:03:57.076Z,28.52
2022-10-26T16:06:31.269Z,34.48
2022-10-26T16:09:01.790Z,28.77
2022-10-26T16:11:29.799Z,23.95
2022-10-26T16:14:03.588Z,23.52
2022-10-26T16:16:30.072Z,26.45
2022-10-26T16:19:18.565Z,26.50
2022-10-26T16:21:27.736Z,32.65
2022-10-26T16:23:57.421Z,34.60
2022-10-26T16:26:25.466Z,35.48
2022-10-26T16:28:52.853Z,26.95
2022-10-26T16:31:21.158Z,29.15
2022-10-26T16:33:48.729Z,37.78
2022-10-26T16:36:17.226Z,34.65
2022-10-26T16:38:45.082Z,37.95
2022-10-26T16:41:14.937Z,32.48
2022-10-26T16:43:45.331Z,26.97
2022-10-26T16:46:17.012Z,34.98
2022-10-26T16:48:46.522Z,35.58
2022-10-26T16:51:16.814Z,32.70
2022-10-26T16:53:50.860Z,36.45
2022-10-26T16:56:22.572Z,32.30
2022-10-26T16:58:50.657Z,36.75
2022-10-26T17:01:21.687Z,36.55
2022-10-26T17:03:51.060Z,33.25
2022-10-26T17:06:18.792Z,32.28
2022-10-26T17:08:46.974Z,29.98
2022-10-26T17:11:17.410Z,30.25
2022-10-26T17:13:45.818Z,36.25
2022-10-26T17:16:19.269Z,31.20
2022-10-26T17:18:47.970Z,30.95
2022-10-26T17:21:17.372Z,38.58
2022-10-26T17:23:45.470Z,31.85
2022-10-26T17:26:14.804Z,32.88
2022-10-26T17:28:42.268Z,34.67
2022-10-26T17:31:15.916Z,34.73
2022-10-26T17:33:44.802Z,33.30
2022-10-26T17:36:14.261Z,35.90
2022-10-26T17:38:42.728Z,36.17
2022-10-26T17:41:14.507Z,30.08
2022-10-26T17:43:44.047Z,35.58
2022-10-26T17:46:14.397Z,33.10
2022-10-26T17:48:55.828Z,42.15
2022-10-26T17:51:24.600Z,35.08
2022-10-26T17:53:53.212Z,36.48
2022-10-26T17:56:23.184Z,35.20
2022-10-26T17:58:53.552Z,45.70
2022-10-26T18:01:21.403Z,41.08
2022-10-26T18:03:49.302Z,44.20
2022-10-26T18:06:17.748Z,35.88
2022-10-26T18:08:45.852Z,34.18
2022-10-26T18:11:16.068Z,36.70
2022-10-26T18:13:44.125Z,39.13
2022-10-26T18:16:14.343Z,45.00
2022-10-26T18:18:44.670Z,39.10
2022-10-26T18:21:13.888Z,35.70
2022-10-26T18:23:41.825Z,36.25
2022-10-26T18:26:13.156Z,32.55
2022-10-26T18:28:41.754Z,42.78
2022-10-26T18:31:12.063Z,37.98
2022-10-26T18:33:39.949Z,40.35
2022-10-26T18:36:10.300Z,44.25
2022-10-26T18:38:40.521Z,32.33
2022-10-26T18:41:10.179Z,38.65
2022-10-26T18:43:45.235Z,39.10
2022-10-26T18:46:18.994Z,38.42
2022-10-26T18:48:45.409Z,38.13
2022-10-26T18:51:15.767Z,37.45
2022-10-26T18:53:46.249Z,34.50
2022-10-26T18:56:17.433Z,33.58
2022-10-26T18:58:49.167Z,34.23
2022-10-26T19:01:23.610Z,29.50
2022-10-26T19:03:59.964Z,31.87
2022-10-26T19:06:31.180Z,29.75
2022-10-26T19:08:59.334Z,34.45
2022-10-26T19:11:29.122Z,31.37
2022-10-26T19:13:57.524Z,37.23
2022-10-26T19:16:44.758Z,34.15
2022-10-26T19:18:58.050Z,35.40
2022-10-26T19:21:26.787Z,32.63
2022-10-26T19:23:56.571Z,33.10
2022-10-26T19:26:30.656Z,36.53
2022-10-26T19:28:59.708Z,40.45
2022-10-26T19:31:28.547Z,33.35
2022-10-26T19:33:57.549Z,36.40
2022-10-26T19:36:25.817Z,32.33
2022-10-26T19:38:54.176Z,34.75
2022-10-26T19:41:23.543Z,32.55
2022-10-26T19:43:51.568Z,30.27
2022-10-26T19:46:21.457Z,30.52
2022-10-26T19:48:52.029Z,35.60
2022-10-26T19:51:20.125Z,32.45
2022-10-26T19:53:47.555Z,33.53
2022-10-26T19:56:16.947Z,31.87
2022-10-26T19:58:45.456Z,31.10
2022-10-26T20:01:23.403Z,29.98
2022-10-26T20:03:51.551Z,30.10
2022-10-26T20:06:18.980Z,29.72
2022-10-26T20:08:48.735Z,29.00
2022-10-26T20:11:17.928Z,32.73
2022-10-26T20:13:46.907Z,39.55
2022-10-26T20:16:17.942Z,34.48
2022-10-26T20:18:48.085Z,29.80
2022-10-26T20:21:16.469Z,31.42
2022-10-26T20:23:44.900Z,35.95
2022-10-26T20:26:18.907Z,33.88
2022-10-26T20:28:46.069Z,33.53
2022-10-26T20:31:13.652Z,29.05
2022-10-26T20:33:41.625Z,36.23
2022-10-26T20:36:09.579Z,33.50
2022-10-26T20:38:38.908Z,39.60
2022-10-26T20:41:10.301Z,36.93
2022-10-26T20:43:39.627Z,30.37
2022-10-26T20:46:10.706Z,36.30
2022-10-26T20:48:39.216Z,34.08
2022-10-26T20:51:10.286Z,34.75
2022-10-26T20:53:53.813Z,33.10
2022-10-26T20:56:25.593Z,36.35
2022-10-26T20:58:55.971Z,40.43
2022-10-26T21:01:30.003Z,44.40
2022-10-26T21:04:00.226Z,42.43
2022-10-26T21:06:28.908Z,38.65
2022-10-26T21:08:57.829Z,43.85
2022-10-26T21:11:26.284Z,44.00
2022-10-26T21:13:54.690Z,48.45
2022-10-26T21:18:50.244Z,41.13
2022-10-26T21:21:17.751Z,42.15
2022-10-26T21:23:46.188Z,41.85
2022-10-26T21:26:13.891Z,37.67
2022-10-26T21:28:46.271Z,37.38
2022-10-26T21:31:15.886Z,36.13
2022-10-26T21:33:43.769Z,44.08
2022-10-26T21:36:12.710Z,38.40
2022-10-26T21:38:43.263Z,37.08
2022-10-26T21:41:13.730Z,37.08
2022-10-26T21:43:43.453Z,37.58
2022-10-26T21:46:11.345Z,35.17
2022-10-26T21:48:41.162Z,37.00
2022-10-26T21:51:15.315Z,37.30
2022-10-26T21:53:43.065Z,36.30
2022-10-26T21:56:16.905Z,35.58
2022-10-26T21:58:45.246Z,34.40
2022-10-26T22:01:15.594Z,32.80
2022-10-26T22:03:44.235Z,39.85
2022-10-26T22:06:13.901Z,35.92
2022-10-26T22:08:41.900Z,34.88
2022-10-26T22:11:23.162Z,37.05
2022-10-26T22:13:51.929Z,37.67
2022-10-26T22:16:22.687Z,40.40
2022-10-26T22:18:51.960Z,35.90
2022-10-26T22:21:21.331Z,39.30
2022-10-26T22:23:50.084Z,36.50
2022-10-26T22:26:23.092Z,39.53
2022-10-26T22:28:53.650Z,36.75
2022-10-26T22:31:27.543Z,32.25
2022-10-26T22:34:00.866Z,43.38
2022-10-26T22:36:29.233Z,36.40
2022-10-26T22:38:56.612Z,38.10
2022-10-26T22:41:25.085Z,36.98
2022-10-26T22:43:52.539Z,35.92
2022-10-26T22:46:25.777Z,41.20
2022-10-26T22:49:03.915Z,42.20
2022-10-26T22:51:34.910Z,34.53
2022-10-26T22:54:04.049Z,38.73
2022-10-26T22:56:33.306Z,39.35
2022-10-26T22:59:00.989Z,43.68
2022-10-26T23:01:31.805Z,34.03
2022-10-26T23:04:00.272Z,40.17
2022-10-26T23:06:29.345Z,37.63
2022-10-26T23:08:57.443Z,40.52
2022-10-26T23:11:27.040Z,40.33
2022-10-26T23:13:56.857Z,37.25
2022-10-26T23:16:25.441Z,39.40
2022-10-26T23:18:53.620Z,36.58
2022-10-26T23:21:22.750Z,45.12
2022-10-26T23:23:50.579Z,35.58
2022-10-26T23:26:21.063Z,38.00
2022-10-26T23:28:49.485Z,38.88
2022-10-26T23:31:22.682Z,38.42
2022-10-26T23:33:51.408Z,36.20
2022-10-26T23:36:19.888Z,35.70
2022-10-26T23:38:48.432Z,36.88
2022-10-26T23:41:16.022Z,43.25
2022-10-26T23:43:43.668Z,36.10
2022-10-26T23:46:11.630Z,40.23
2022-10-26T23:48:39.234Z,35.65
2022-10-26T23:51:06.796Z,37.23
2022-10-26T23:53:34.560Z,35.73
2022-10-26T23:56:02.330Z,36.93
2022-10-26T23:58:30.095Z,40.60
